sensor_id;sensor_type;location;lat;lon;timestamp;pressure;altitude;pressure_sealevel;temperature;humidity
20027;BME280;10174;42.688;23.344;2022-09-28T00:00:41;94315.34;;;12.08;99.04
20027;BME280;10174;42.688;23.344;2022-09-28T00:03:08;94321.94;;;12.16;99.46
20027;BME280;10174;42.688;23.344;2022-09-28T00:05:34;94321.81;;;12.07;99.19
20027;BME280;10174;42.688;23.344;2022-09-28T00:07:59;94329.78;;;12.12;99.52
20027;BME280;10174;42.688;23.344;2022-09-28T00:10:25;94335.09;;;12.17;100.00
20027;BME280;10174;42.688;23.344;2022-09-28T00:12:51;94327.50;;;12.19;99.30
20027;BME280;10174;42.688;23.344;2022-09-28T00:15:19;94318.03;;;11.89;98.78
20027;BME280;10174;42.688;23.344;2022-09-28T00:17:44;94314.44;;;11.99;99.22
20027;BME280;10174;42.688;23.344;2022-09-28T00:20:11;94315.94;;;12.05;99.45
20027;BME280;10174;42.688;23.344;2022-09-28T00:22:37;94321.81;;;12.07;99.99
20027;BME280;10174;42.688;23.344;2022-09-28T00:25:03;94330.38;;;12.09;99.77
20027;BME280;10174;42.688;23.344;2022-09-28T00:27:29;94322.91;;;12.20;98.68
20027;BME280;10174;42.688;23.344;2022-09-28T00:29:55;94254.03;;;11.72;98.35
20027;BME280;10174;42.688;23.344;2022-09-28T00:32:21;94318.69;;;12.00;98.83
20027;BME280;10174;42.688;23.344;2022-09-28T00:34:49;94326.78;;;12.00;99.02
20027;BME280;10174;42.688;23.344;2022-09-28T00:37:15;94240.81;;;11.43;98.88
20027;BME280;10174;42.688;23.344;2022-09-28T00:39:43;94270.75;;;11.69;99.02
20027;BME280;10174;42.688;23.344;2022-09-28T00:42:14;94219.25;;;11.29;98.49
20027;BME280;10174;42.688;23.344;2022-09-28T00:50:00;94326.56;;;11.77;99.29
20027;BME280;10174;42.688;23.344;2022-09-28T00:52:33;94324.91;;;11.81;99.60
20027;BME280;10174;42.688;23.344;2022-09-28T00:55:02;94220.56;;;11.12;99.37
20027;BME280;10174;42.688;23.344;2022-09-28T00:57:29;94320.84;;;11.84;99.69
20027;BME280;10174;42.688;23.344;2022-09-28T00:59:57;94320.84;;;11.84;100.00
20027;BME280;10174;42.688;23.344;2022-09-28T01:02:23;94324.66;;;11.97;100.00
20027;BME280;10174;42.688;23.344;2022-09-28T01:04:49;94329.09;;;11.87;99.20
20027;BME280;10174;42.688;23.344;2022-09-28T01:07:16;94332.53;;;11.74;98.86
20027;BME280;10174;42.688;23.344;2022-09-28T01:09:43;94279.81;;;11.40;98.84
20027;BME280;10174;42.688;23.344;2022-09-28T01:12:10;94305.63;;;11.74;99.34
20027;BME280;10174;42.688;23.344;2022-09-28T01:14:35;94323.72;;;11.87;100.00
20027;BME280;10174;42.688;23.344;2022-09-28T01:17:24;94336.59;;;11.90;100.00
20027;BME280;10174;42.688;23.344;2022-09-28T01:22:59;94314.63;;;11.83;100.00
20027;BME280;10174;42.688;23.344;2022-09-28T01:25:40;94334.97;;;11.89;100.00
20027;BME280;10174;42.688;23.344;2022-09-28T01:28:14;94333.41;;;11.88;100.00
20027;BME280;10174;42.688;23.344;2022-09-28T01:31:05;94329.59;;;11.89;100.00
20027;BME280;10174;42.688;23.344;2022-09-28T01:33:38;94332.56;;;11.93;100.00
20027;BME280;10174;42.688;23.344;2022-09-28T01:36:10;94325.41;;;11.83;100.00
20027;BME280;10174;42.688;23.344;2022-09-28T01:38:41;94330.00;;;11.83;100.00
20027;BME280;10174;42.688;23.344;2022-09-28T01:41:09;94346.22;;;11.97;100.00
20027;BME280;10174;42.688;23.344;2022-09-28T01:43:39;94337.63;;;11.94;100.00
20027;BME280;10174;42.688;23.344;2022-09-28T01:46:16;94346.72;;;11.99;100.00
20027;BME280;10174;42.688;23.344;2022-09-28T01:48:55;94337.47;;;11.86;100.00
20027;BME280;10174;42.688;23.344;2022-09-28T01:54:56;94332.94;;;11.67;100.00
20027;BME280;10174;42.688;23.344;2022-09-28T01:59:54;94321.97;;;11.64;100.00
20027;BME280;10174;42.688;23.344;2022-09-28T02:02:26;94345.13;;;11.79;100.00
20027;BME280;10174;42.688;23.344;2022-09-28T02:05:28;94338.16;;;11.77;100.00
20027;BME280;10174;42.688;23.344;2022-09-28T02:08:09;94369.41;;;11.92;100.00
20027;BME280;10174;42.688;23.344;2022-09-28T02:10:43;94346.53;;;11.76;100.00
20027;BME280;10174;42.688;23.344;2022-09-28T02:13:16;94373.19;;;11.91;100.00
20027;BME280;10174;42.688;23.344;2022-09-28T02:15:57;94360.25;;;11.93;100.00
20027;BME280;10174;42.688;23.344;2022-09-28T02:18:24;94354.22;;;12.02;100.00
20027;BME280;10174;42.688;23.344;2022-09-28T02:21:13;94350.28;;;11.94;100.00
20027;BME280;10174;42.688;23.344;2022-09-28T02:23:51;94347.34;;;11.90;100.00
20027;BME280;10174;42.688;23.344;2022-09-28T02:26:19;94358.56;;;11.98;100.00
20027;BME280;10174;42.688;23.344;2022-09-28T02:28:47;94343.75;;;11.81;100.00
20027;BME280;10174;42.688;23.344;2022-09-28T02:31:12;94274.00;;;11.33;100.00
20027;BME280;10174;42.688;23.344;2022-09-28T02:33:40;94350.72;;;11.82;100.00
20027;BME280;10174;42.688;23.344;2022-09-28T02:36:08;94361.50;;;11.82;100.00
20027;BME280;10174;42.688;23.344;2022-09-28T02:38:35;94346.81;;;11.74;100.00
20027;BME280;10174;42.688;23.344;2022-09-28T02:49:13;94362.66;;;11.76;100.00
20027;BME280;10174;42.688;23.344;2022-09-28T03:07:24;94359.44;;;11.74;100.00
20027;BME280;10174;42.688;23.344;2022-09-28T03:10:16;94366.06;;;11.82;100.00
20027;BME280;10174;42.688;23.344;2022-09-28T03:12:45;94364.53;;;11.75;100.00
20027;BME280;10174;42.688;23.344;2022-09-28T03:15:24;94364.69;;;11.84;100.00
20027;BME280;10174;42.688;23.344;2022-09-28T03:17:50;94349.50;;;11.74;100.00
20027;BME280;10174;42.688;23.344;2022-09-28T03:20:15;94380.03;;;11.84;100.00
20027;BME280;10174;42.688;23.344;2022-09-28T03:22:41;94387.75;;;11.71;100.00
20027;BME280;10174;42.688;23.344;2022-09-28T03:25:07;94387.75;;;11.71;100.00
20027;BME280;10174;42.688;23.344;2022-09-28T03:27:33;94376.13;;;11.57;100.00
20027;BME280;10174;42.688;23.344;2022-09-28T03:29:58;94375.47;;;11.46;100.00
20027;BME280;10174;42.688;23.344;2022-09-28T03:32:24;94301.94;;;10.99;100.00
20027;BME280;10174;42.688;23.344;2022-09-28T03:34:49;94393.66;;;11.54;100.00
20027;BME280;10174;42.688;23.344;2022-09-28T03:37:15;94394.06;;;11.62;100.00
20027;BME280;10174;42.688;23.344;2022-09-28T03:39:40;94288.13;;;10.86;100.00
20027;BME280;10174;42.688;23.344;2022-09-28T03:42:05;94389.81;;;11.61;100.00
20027;BME280;10174;42.688;23.344;2022-09-28T03:44:31;94402.66;;;11.64;100.00
20027;BME280;10174;42.688;23.344;2022-09-28T03:46:56;94394.00;;;11.67;100.00
20027;BME280;10174;42.688;23.344;2022-09-28T03:49:22;94389.03;;;11.74;100.00
20027;BME280;10174;42.688;23.344;2022-09-28T03:51:47;94367.59;;;11.69;100.00
20027;BME280;10174;42.688;23.344;2022-09-28T03:54:12;94303.97;;;11.26;100.00
20027;BME280;10174;42.688;23.344;2022-09-28T03:56:39;94373.19;;;11.72;100.00
20027;BME280;10174;42.688;23.344;2022-09-28T03:59:04;94404.47;;;11.87;100.00
20027;BME280;10174;42.688;23.344;2022-09-28T04:01:30;94381.63;;;11.85;100.00
20027;BME280;10174;42.688;23.344;2022-09-28T04:03:55;94399.25;;;11.96;100.00
20027;BME280;10174;42.688;23.344;2022-09-28T04:06:22;94383.81;;;11.83;100.00
20027;BME280;10174;42.688;23.344;2022-09-28T04:08:47;94397.94;;;11.93;100.00
20027;BME280;10174;42.688;23.344;2022-09-28T04:11:12;94389.50;;;12.00;100.00
20027;BME280;10174;42.688;23.344;2022-09-28T04:13:38;94394.34;;;11.98;100.00
20027;BME280;10174;42.688;23.344;2022-09-28T04:16:03;94391.06;;;12.01;100.00
20027;BME280;10174;42.688;23.344;2022-09-28T04:18:30;94372.16;;;11.87;100.00
20027;BME280;10174;42.688;23.344;2022-09-28T04:21:08;94266.34;;;11.26;100.00
20027;BME280;10174;42.688;23.344;2022-09-28T04:23:36;94388.09;;;12.03;100.00
20027;BME280;10174;42.688;23.344;2022-09-28T04:26:03;94397.69;;;12.09;100.00
20027;BME280;10174;42.688;23.344;2022-09-28T04:28:29;94398.69;;;12.13;100.00
20027;BME280;10174;42.688;23.344;2022-09-28T04:31:18;94384.75;;;12.11;100.00
20027;BME280;10174;42.688;23.344;2022-09-28T04:33:44;94377.75;;;12.10;100.00
20027;BME280;10174;42.688;23.344;2022-09-28T04:36:10;94377.31;;;12.03;100.00
20027;BME280;10174;42.688;23.344;2022-09-28T04:38:36;94383.22;;;12.05;100.00
20027;BME280;10174;42.688;23.344;2022-09-28T04:41:02;94402.91;;;12.19;100.00
20027;BME280;10174;42.688;23.344;2022-09-28T04:43:28;94392.81;;;12.11;100.00
20027;BME280;10174;42.688;23.344;2022-09-28T04:46:00;94394.09;;;12.14;100.00
20027;BME280;10174;42.688;23.344;2022-09-28T04:48:27;94394.94;;;12.14;100.00
20027;BME280;10174;42.688;23.344;2022-09-28T04:50:57;94389.53;;;12.14;100.00
20027;BME280;10174;42.688;23.344;2022-09-28T04:53:25;94393.38;;;12.41;100.00
20027;BME280;10174;42.688;23.344;2022-09-28T04:56:01;94291.91;;;11.89;99.12
20027;BME280;10174;42.688;23.344;2022-09-28T04:58:27;94385.59;;;12.39;98.73
20027;BME280;10174;42.688;23.344;2022-09-28T05:00:58;94358.81;;;12.15;99.82
20027;BME280;10174;42.688;23.344;2022-09-28T05:03:24;94348.84;;;12.02;100.00
20027;BME280;10174;42.688;23.344;2022-09-28T05:05:49;94377.50;;;12.25;100.00
20027;BME280;10174;42.688;23.344;2022-09-28T05:08:15;94387.31;;;12.49;100.00
20027;BME280;10174;42.688;23.344;2022-09-28T05:10:41;94374.63;;;12.36;100.00
20027;BME280;10174;42.688;23.344;2022-09-28T05:13:08;94376.47;;;12.21;100.00
20027;BME280;10174;42.688;23.344;2022-09-28T05:15:34;94321.19;;;11.77;100.00
20027;BME280;10174;42.688;23.344;2022-09-28T05:17:59;94382.53;;;12.13;100.00
20027;BME280;10174;42.688;23.344;2022-09-28T05:20:25;94397.53;;;12.19;100.00
20027;BME280;10174;42.688;23.344;2022-09-28T05:22:50;94409.06;;;12.20;100.00
20027;BME280;10174;42.688;23.344;2022-09-28T05:25:16;94410.28;;;12.27;100.00
20027;BME280;10174;42.688;23.344;2022-09-28T05:27:42;94411.91;;;12.28;100.00
20027;BME280;10174;42.688;23.344;2022-09-28T05:30:08;94386.13;;;12.08;100.00
20027;BME280;10174;42.688;23.344;2022-09-28T05:32:39;94407.38;;;12.10;100.00
20027;BME280;10174;42.688;23.344;2022-09-28T05:35:05;94410.38;;;12.22;100.00
20027;BME280;10174;42.688;23.344;2022-09-28T05:37:30;94414.78;;;12.32;100.00
20027;BME280;10174;42.688;23.344;2022-09-28T05:39:56;94409.13;;;12.34;100.00
20027;BME280;10174;42.688;23.344;2022-09-28T05:42:21;94393.34;;;12.27;100.00
20027;BME280;10174;42.688;23.344;2022-09-28T05:44:46;94393.19;;;12.37;100.00
20027;BME280;10174;42.688;23.344;2022-09-28T05:47:12;94408.06;;;12.62;100.00
20027;BME280;10174;42.688;23.344;2022-09-28T05:49:37;94413.47;;;12.90;99.82
20027;BME280;10174;42.688;23.344;2022-09-28T05:52:03;94406.63;;;12.98;98.28
20027;BME280;10174;42.688;23.344;2022-09-28T05:54:28;94404.22;;;12.96;98.35
20027;BME280;10174;42.688;23.344;2022-09-28T05:56:53;94418.34;;;13.30;97.15
20027;BME280;10174;42.688;23.344;2022-09-28T05:59:19;94349.38;;;12.87;97.31
20027;BME280;10174;42.688;23.344;2022-09-28T06:01:44;94410.78;;;13.18;97.14
20027;BME280;10174;42.688;23.344;2022-09-28T06:04:10;94397.50;;;13.22;97.27
20027;BME280;10174;42.688;23.344;2022-09-28T06:06:35;94391.81;;;13.23;97.06
20027;BME280;10174;42.688;23.344;2022-09-28T06:09:02;94403.16;;;13.48;97.42
20027;BME280;10174;42.688;23.344;2022-09-28T06:11:27;94410.97;;;13.49;96.75
20027;BME280;10174;42.688;23.344;2022-09-28T06:13:53;94427.38;;;13.53;96.56
20027;BME280;10174;42.688;23.344;2022-09-28T06:16:19;94396.28;;;13.42;96.77
20027;BME280;10174;42.688;23.344;2022-09-28T06:18:45;94328.50;;;13.07;96.98
20027;BME280;10174;42.688;23.344;2022-09-28T06:21:11;94432.78;;;13.76;95.73
20027;BME280;10174;42.688;23.344;2022-09-28T06:23:37;94439.56;;;13.87;95.74
20027;BME280;10174;42.688;23.344;2022-09-28T06:26:02;94444.84;;;13.92;95.65
20027;BME280;10174;42.688;23.344;2022-09-28T06:28:28;94328.50;;;13.07;95.20
20027;BME280;10174;42.688;23.344;2022-09-28T06:30:53;94443.44;;;13.58;95.39
20027;BME280;10174;42.688;23.344;2022-09-28T06:33:19;94438.84;;;13.45;95.95
20027;BME280;10174;42.688;23.344;2022-09-28T06:35:44;94335.53;;;12.80;95.43
20027;BME280;10174;42.688;23.344;2022-09-28T06:38:10;94432.66;;;13.30;95.65
20027;BME280;10174;42.688;23.344;2022-09-28T06:40:36;94425.75;;;13.52;93.71
20027;BME280;10174;42.688;23.344;2022-09-28T06:43:12;94440.34;;;13.51;94.53
20027;BME280;10174;42.688;23.344;2022-09-28T06:45:40;94439.38;;;13.47;94.12
20027;BME280;10174;42.688;23.344;2022-09-28T06:48:07;94441.94;;;13.52;94.09
20027;BME280;10174;42.688;23.344;2022-09-28T06:50:38;94452.53;;;13.62;93.65
20027;BME280;10174;42.688;23.344;2022-09-28T06:53:06;94444.00;;;13.69;93.63
20027;BME280;10174;42.688;23.344;2022-09-28T06:55:34;94447.00;;;14.04;91.84
20027;BME280;10174;42.688;23.344;2022-09-28T06:58:04;94442.78;;;13.75;92.22
20027;BME280;10174;42.688;23.344;2022-09-28T07:00:34;94429.28;;;13.75;92.72
20027;BME280;10174;42.688;23.344;2022-09-28T07:03:05;94433.13;;;13.60;92.89
20027;BME280;10174;42.688;23.344;2022-09-28T07:05:33;94415.06;;;13.61;93.14
20027;BME280;10174;42.688;23.344;2022-09-28T07:08:03;94447.63;;;14.01;92.61
20027;BME280;10174;42.688;23.344;2022-09-28T07:10:30;94452.59;;;14.53;91.38
20027;BME280;10174;42.688;23.344;2022-09-28T07:12:57;94449.84;;;14.44;89.39
20027;BME280;10174;42.688;23.344;2022-09-28T07:15:26;94435.84;;;14.42;90.53
20027;BME280;10174;42.688;23.344;2022-09-28T07:18:00;94460.34;;;14.68;89.59
20027;BME280;10174;42.688;23.344;2022-09-28T07:20:26;94446.34;;;14.43;89.63
20027;BME280;10174;42.688;23.344;2022-09-28T07:22:56;94457.38;;;14.56;89.42
20027;BME280;10174;42.688;23.344;2022-09-28T07:25:24;94470.78;;;14.61;88.99
20027;BME280;10174;42.688;23.344;2022-09-28T07:27:50;94464.63;;;14.47;89.54
20027;BME280;10174;42.688;23.344;2022-09-28T07:30:16;94473.84;;;14.46;90.06
20027;BME280;10174;42.688;23.344;2022-09-28T07:32:43;94469.81;;;14.57;90.29
20027;BME280;10174;42.688;23.344;2022-09-28T07:35:09;94466.25;;;14.48;89.42
20027;BME280;10174;42.688;23.344;2022-09-28T07:37:35;94454.78;;;14.65;87.76
20027;BME280;10174;42.688;23.344;2022-09-28T07:40:02;94453.22;;;14.72;88.33
20027;BME280;10174;42.688;23.344;2022-09-28T07:42:46;94470.13;;;14.87;89.39
20027;BME280;10174;42.688;23.344;2022-09-28T07:45:12;94418.28;;;14.85;88.81
20027;BME280;10174;42.688;23.344;2022-09-28T07:47:37;94444.47;;;15.07;88.12
20027;BME280;10174;42.688;23.344;2022-09-28T07:50:03;94460.03;;;15.41;86.80
20027;BME280;10174;42.688;23.344;2022-09-28T07:52:28;94455.59;;;15.45;85.96
20027;BME280;10174;42.688;23.344;2022-09-28T07:54:54;94451.84;;;15.81;84.76
20027;BME280;10174;42.688;23.344;2022-09-28T07:57:21;94461.91;;;16.07;84.27
20027;BME280;10174;42.688;23.344;2022-09-28T07:59:47;94466.06;;;16.22;83.19
20027;BME280;10174;42.688;23.344;2022-09-28T08:02:14;94453.16;;;16.10;83.54
20027;BME280;10174;42.688;23.344;2022-09-28T08:04:40;94458.56;;;16.10;84.32
20027;BME280;10174;42.688;23.344;2022-09-28T08:07:09;94465.25;;;16.21;82.71
20027;BME280;10174;42.688;23.344;2022-09-28T08:09:35;94356.25;;;15.72;82.83
20027;BME280;10174;42.688;23.344;2022-09-28T08:12:01;94458.31;;;16.94;81.91
20027;BME280;10174;42.688;23.344;2022-09-28T08:14:28;94452.88;;;16.94;80.71
20027;BME280;10174;42.688;23.344;2022-09-28T08:16:56;94462.78;;;16.99;80.26
20027;BME280;10174;42.688;23.344;2022-09-28T08:19:21;94460.28;;;17.23;78.71
20027;BME280;10174;42.688;23.344;2022-09-28T08:21:47;94398.06;;;17.18;78.86
20027;BME280;10174;42.688;23.344;2022-09-28T08:24:13;94349.28;;;17.01;77.17
20027;BME280;10174;42.688;23.344;2022-09-28T08:26:39;94428.31;;;17.59;75.52
20027;BME280;10174;42.688;23.344;2022-09-28T08:29:05;94452.97;;;18.26;73.51
20027;BME280;10174;42.688;23.344;2022-09-28T08:31:30;94461.38;;;18.54;71.22
20027;BME280;10174;42.688;23.344;2022-09-28T08:33:56;94460.22;;;18.55;70.23
20027;BME280;10174;42.688;23.344;2022-09-28T08:36:22;94468.00;;;18.78;70.45
20027;BME280;10174;42.688;23.344;2022-09-28T08:38:48;94472.63;;;18.86;70.39
20027;BME280;10174;42.688;23.344;2022-09-28T08:41:40;94459.78;;;18.53;69.38
20027;BME280;10174;42.688;23.344;2022-09-28T08:44:13;94458.75;;;18.24;69.96
20027;BME280;10174;42.688;23.344;2022-09-28T08:46:43;94435.16;;;18.16;70.36
20027;BME280;10174;42.688;23.344;2022-09-28T08:51:44;94464.53;;;19.48;66.81
20027;BME280;10174;42.688;23.344;2022-09-28T08:57:06;94342.91;;;19.15;63.67
20027;BME280;10174;42.688;23.344;2022-09-28T08:59:44;94401.63;;;20.59;59.81
20027;BME280;10174;42.688;23.344;2022-09-28T09:02:17;94448.03;;;21.35;61.30
20027;BME280;10174;42.688;23.344;2022-09-28T09:04:44;94369.78;;;21.59;56.74
20027;BME280;10174;42.688;23.344;2022-09-28T09:11:11;94445.88;;;24.32;49.86
20027;BME280;10174;42.688;23.344;2022-09-28T09:21:14;94434.53;;;24.98;47.96
20027;BME280;10174;42.688;23.344;2022-09-28T09:24:15;94433.63;;;25.28;45.97
20027;BME280;10174;42.688;23.344;2022-09-28T09:26:42;94423.06;;;25.82;45.02
20027;BME280;10174;42.688;23.344;2022-09-28T09:29:30;94374.94;;;25.51;45.46
20027;BME280;10174;42.688;23.344;2022-09-28T09:53:58;94401.00;;;28.86;39.01
20027;BME280;10174;42.688;23.344;2022-09-28T09:56:38;94380.19;;;29.83;37.53
20027;BME280;10174;42.688;23.344;2022-09-28T09:59:07;94399.06;;;28.72;38.87
20027;BME280;10174;42.688;23.344;2022-09-28T10:01:37;94395.56;;;28.65;38.66
20027;BME280;10174;42.688;23.344;2022-09-28T10:04:10;94402.75;;;29.25;36.82
20027;BME280;10174;42.688;23.344;2022-09-28T10:06:40;94394.69;;;29.45;36.70
20027;BME280;10174;42.688;23.344;2022-09-28T10:09:17;94322.88;;;29.38;36.61
20027;BME280;10174;42.688;23.344;2022-09-28T10:11:45;94351.22;;;29.49;36.61
20027;BME280;10174;42.688;23.344;2022-09-28T10:14:17;94290.47;;;28.86;35.66
20027;BME280;10174;42.688;23.344;2022-09-28T10:16:46;94335.75;;;30.66;34.78
20027;BME280;10174;42.688;23.344;2022-09-28T10:19:13;94386.41;;;30.63;34.79
20027;BME280;10174;42.688;23.344;2022-09-28T10:21:40;94391.59;;;30.27;35.02
20027;BME280;10174;42.688;23.344;2022-09-28T10:24:14;94380.00;;;30.35;35.24
20027;BME280;10174;42.688;23.344;2022-09-28T10:26:45;94375.84;;;31.91;32.27
20027;BME280;10174;42.688;23.344;2022-09-28T10:29:19;94345.88;;;32.02;30.27
20027;BME280;10174;42.688;23.344;2022-09-28T10:31:48;94329.09;;;32.09;30.17
20027;BME280;10174;42.688;23.344;2022-09-28T10:34:16;94373.94;;;32.31;30.01
20027;BME280;10174;42.688;23.344;2022-09-28T10:36:52;94337.91;;;31.60;32.25
20027;BME280;10174;42.688;23.344;2022-09-28T10:39:31;94359.75;;;32.02;31.13
20027;BME280;10174;42.688;23.344;2022-09-28T10:42:02;94356.88;;;32.29;29.53
20027;BME280;10174;42.688;23.344;2022-09-28T10:44:42;94313.22;;;33.23;28.75
20027;BME280;10174;42.688;23.344;2022-09-28T10:47:14;94341.25;;;32.39;28.40
20027;BME280;10174;42.688;23.344;2022-09-28T10:49:46;94345.19;;;31.00;30.55
20027;BME280;10174;42.688;23.344;2022-09-28T10:54:57;94341.09;;;31.35;29.03
20027;BME280;10174;42.688;23.344;2022-09-28T10:57:34;94338.28;;;32.06;29.27
20027;BME280;10174;42.688;23.344;2022-09-28T11:00:00;94281.47;;;32.31;27.71
20027;BME280;10174;42.688;23.344;2022-09-28T11:02:38;94333.88;;;32.69;27.43
20027;BME280;10174;42.688;23.344;2022-09-28T11:05:05;94308.78;;;32.53;27.49
20027;BME280;10174;42.688;23.344;2022-09-28T11:07:33;94305.28;;;31.44;29.67
20027;BME280;10174;42.688;23.344;2022-09-28T11:10:19;94324.72;;;32.32;28.06
20027;BME280;10174;42.688;23.344;2022-09-28T11:12:46;94234.22;;;31.27;29.96
20027;BME280;10174;42.688;23.344;2022-09-28T11:15:19;94296.41;;;33.10;28.19
20027;BME280;10174;42.688;23.344;2022-09-28T11:17:45;94240.47;;;32.19;29.73
20027;BME280;10174;42.688;23.344;2022-09-28T11:22:50;94290.31;;;33.81;27.38
20027;BME280;10174;42.688;23.344;2022-09-28T11:30:22;94285.78;;;33.71;27.23
20027;BME280;10174;42.688;23.344;2022-09-28T11:32:49;94210.78;;;35.25;23.08
20027;BME280;10174;42.688;23.344;2022-09-28T11:35:36;94232.78;;;35.10;24.66
20027;BME280;10174;42.688;23.344;2022-09-28T11:40:53;94268.44;;;33.17;25.11
20027;BME280;10174;42.688;23.344;2022-09-28T11:43:54;94261.34;;;34.63;23.37
20027;BME280;10174;42.688;23.344;2022-09-28T11:49:15;94274.38;;;34.11;25.22
20027;BME280;10174;42.688;23.344;2022-09-28T11:51:48;94264.94;;;34.89;24.19
20027;BME280;10174;42.688;23.344;2022-09-28T11:56:48;94281.47;;;32.31;28.44
20027;BME280;10174;42.688;23.344;2022-09-28T11:59:29;94268.78;;;33.36;26.45
20027;BME280;10174;42.688;23.344;2022-09-28T12:02:24;94275.09;;;30.99;28.76
20027;BME280;10174;42.688;23.344;2022-09-28T12:05:08;94265.50;;;30.18;31.99
20027;BME280;10174;42.688;23.344;2022-09-28T12:07:46;94254.41;;;30.53;29.04
20027;BME280;10174;42.688;23.344;2022-09-28T12:13:15;94266.09;;;29.64;29.91
20027;BME280;10174;42.688;23.344;2022-09-28T12:18:22;94274.75;;;27.98;32.63
20027;BME280;10174;42.688;23.344;2022-09-28T12:23:35;94263.38;;;26.27;34.78
20027;BME280;10174;42.688;23.344;2022-09-28T12:26:18;94253.41;;;25.97;35.91
20027;BME280;10174;42.688;23.344;2022-09-28T12:28:49;94233.81;;;26.09;38.56
20027;BME280;10174;42.688;23.344;2022-09-28T12:31:33;94263.75;;;26.29;38.61
20027;BME280;10174;42.688;23.344;2022-09-28T12:34:01;94259.75;;;26.01;39.03
20027;BME280;10174;42.688;23.344;2022-09-28T12:37:00;94271.38;;;25.73;36.98
20027;BME280;10174;42.688;23.344;2022-09-28T12:42:21;94261.03;;;25.45;39.70
20027;BME280;10174;42.688;23.344;2022-09-28T12:59:06;94273.75;;;24.63;43.83
20027;BME280;10174;42.688;23.344;2022-09-28T13:02:29;94261.19;;;24.66;42.48
20027;BME280;10174;42.688;23.344;2022-09-28T13:07:24;94266.38;;;24.37;40.94
20027;BME280;10174;42.688;23.344;2022-09-28T13:10:10;94271.31;;;24.58;42.60
20027;BME280;10174;42.688;23.344;2022-09-28T13:15:45;94256.50;;;23.91;42.58
20027;BME280;10174;42.688;23.344;2022-09-28T13:18:36;94246.19;;;24.15;40.05
20027;BME280;10174;42.688;23.344;2022-09-28T13:23:42;94262.31;;;24.58;39.64
20027;BME280;10174;42.688;23.344;2022-09-28T13:26:26;94259.38;;;24.81;41.04
20027;BME280;10174;42.688;23.344;2022-09-28T13:28:54;94253.81;;;25.25;37.54
20027;BME280;10174;42.688;23.344;2022-09-28T13:31:24;94190.38;;;24.38;40.33
20027;BME280;10174;42.688;23.344;2022-09-28T13:33:56;94246.81;;;24.39;40.79
20027;BME280;10174;42.688;23.344;2022-09-28T13:38:54;94264.25;;;24.57;39.54
20027;BME280;10174;42.688;23.344;2022-09-28T13:41:36;94258.22;;;24.82;39.41
20027;BME280;10174;42.688;23.344;2022-09-28T13:49:25;94273.69;;;24.60;39.82
20027;BME280;10174;42.688;23.344;2022-09-28T13:52:03;94180.06;;;24.24;37.96
20027;BME280;10174;42.688;23.344;2022-09-28T13:57:17;94253.88;;;24.40;40.81
20027;BME280;10174;42.688;23.344;2022-09-28T14:00:19;94193.84;;;23.93;40.14
20027;BME280;10174;42.688;23.344;2022-09-28T14:03:22;94202.13;;;23.66;40.20
20027;BME280;10174;42.688;23.344;2022-09-28T14:14:30;94251.94;;;24.03;40.71
20027;BME280;10174;42.688;23.344;2022-09-28T14:25:39;94234.94;;;24.27;40.96
20027;BME280;10174;42.688;23.344;2022-09-28T14:33:27;94216.00;;;23.47;41.30
20027;BME280;10174;42.688;23.344;2022-09-28T14:36:00;94229.00;;;23.54;41.58
20027;BME280;10174;42.688;23.344;2022-09-28T14:38:44;94220.88;;;23.30;42.50
20027;BME280;10174;42.688;23.344;2022-09-28T14:41:33;94202.44;;;23.01;43.10
20027;BME280;10174;42.688;23.344;2022-09-28T14:44:07;94242.19;;;23.44;42.26
20027;BME280;10174;42.688;23.344;2022-09-28T14:46:43;94242.75;;;23.57;41.58
20027;BME280;10174;42.688;23.344;2022-09-28T14:51:42;94238.00;;;23.54;44.14
20027;BME280;10174;42.688;23.344;2022-09-28T14:56:43;94245.06;;;23.55;46.21
20027;BME280;10174;42.688;23.344;2022-09-28T15:01:50;94244.47;;;23.39;44.53
20027;BME280;10174;42.688;23.344;2022-09-28T15:04:18;94116.19;;;22.57;47.08
20027;BME280;10174;42.688;23.344;2022-09-28T15:06:49;94233.09;;;23.37;43.92
20027;BME280;10174;42.688;23.344;2022-09-28T15:09:46;94250.50;;;23.21;47.76
20027;BME280;10174;42.688;23.344;2022-09-28T15:12:15;94241.56;;;23.28;42.87
20027;BME280;10174;42.688;23.344;2022-09-28T15:14:56;94253.28;;;23.25;43.92
20027;BME280;10174;42.688;23.344;2022-09-28T15:17:25;94233.81;;;22.80;46.56
20027;BME280;10174;42.688;23.344;2022-09-28T15:22:36;94254.06;;;22.75;45.89
20027;BME280;10174;42.688;23.344;2022-09-28T15:25:16;94186.19;;;22.15;46.54
20027;BME280;10174;42.688;23.344;2022-09-28T15:27:44;94260.03;;;22.35;49.30
20027;BME280;10174;42.688;23.344;2022-09-28T15:32:48;94268.84;;;22.05;50.03
20027;BME280;10174;42.688;23.344;2022-09-28T15:37:47;94173.69;;;21.13;51.69
20027;BME280;10174;42.688;23.344;2022-09-28T15:40:30;94265.09;;;21.55;53.92
20027;BME280;10174;42.688;23.344;2022-09-28T15:42:58;94273.16;;;21.31;54.17
20027;BME280;10174;42.688;23.344;2022-09-28T15:45:30;94275.66;;;21.21;55.26
20027;BME280;10174;42.688;23.344;2022-09-28T15:48:27;94273.63;;;21.17;54.06
20027;BME280;10174;42.688;23.344;2022-09-28T15:51:24;94278.25;;;20.97;55.08
20027;BME280;10174;42.688;23.344;2022-09-28T15:56:27;94264.72;;;20.69;56.75
20027;BME280;10174;42.688;23.344;2022-09-28T15:59:17;94282.22;;;20.68;56.74
20027;BME280;10174;42.688;23.344;2022-09-28T16:01:47;94287.75;;;20.56;57.47
20027;BME280;10174;42.688;23.344;2022-09-28T16:12:41;94281.56;;;19.70;62.64
20027;BME280;10174;42.688;23.344;2022-09-28T16:15:22;94257.44;;;19.56;62.03